sensor_id;sensor_type;location;lat;lon;timestamp;P1;durP1;ratioP1;P2;durP2;ratioP2
73697;SDS011;62004;42.566;23.164;2023-02-26T00:01:29;857.85;;;785.05;;
73697;SDS011;62004;42.566;23.164;2023-02-26T00:03:55;866.70;;;794.50;;
73697;SDS011;62004;42.566;23.164;2023-02-26T00:06:21;864.55;;;791.97;;
73697;SDS011;62004;42.566;23.164;2023-02-26T00:08:47;862.25;;;789.75;;
73697;SDS011;62004;42.566;23.164;2023-02-26T00:11:12;863.13;;;790.07;;
73697;SDS011;62004;42.566;23.164;2023-02-26T00:13:38;862.53;;;790.15;;
73697;SDS011;62004;42.566;23.164;2023-02-26T00:16:08;859.05;;;787.13;;
73697;SDS011;62004;42.566;23.164;2023-02-26T00:18:34;862.08;;;788.15;;
73697;SDS011;62004;42.566;23.164;2023-02-26T00:21:00;860.85;;;789.05;;
73697;SDS011;62004;42.566;23.164;2023-02-26T00:23:25;859.60;;;786.97;;
73697;SDS011;62004;42.566;23.164;2023-02-26T00:25:50;868.50;;;794.87;;
73697;SDS011;62004;42.566;23.164;2023-02-26T00:28:16;858.77;;;785.70;;
73697;SDS011;62004;42.566;23.164;2023-02-26T00:30:41;854.10;;;782.65;;
73697;SDS011;62004;42.566;23.164;2023-02-26T00:33:07;859.47;;;787.58;;
73697;SDS011;62004;42.566;23.164;2023-02-26T00:35:32;851.67;;;778.97;;
73697;SDS011;62004;42.566;23.164;2023-02-26T00:38:02;859.63;;;786.45;;
73697;SDS011;62004;42.566;23.164;2023-02-26T00:40:33;857.50;;;785.67;;
73697;SDS011;62004;42.566;23.164;2023-02-26T00:42:59;857.10;;;784.53;;
73697;SDS011;62004;42.566;23.164;2023-02-26T00:45:24;869.47;;;795.83;;
73697;SDS011;62004;42.566;23.164;2023-02-26T00:48:05;861.17;;;787.70;;
73697;SDS011;62004;42.566;23.164;2023-02-26T00:50:33;853.83;;;782.17;;
73697;SDS011;62004;42.566;23.164;2023-02-26T00:55:30;852.85;;;780.72;;
73697;SDS011;62004;42.566;23.164;2023-02-26T00:57:55;857.20;;;783.92;;
73697;SDS011;62004;42.566;23.164;2023-02-26T01:00:21;852.80;;;779.37;;
73697;SDS011;62004;42.566;23.164;2023-02-26T01:02:46;869.30;;;795.13;;
73697;SDS011;62004;42.566;23.164;2023-02-26T01:05:12;858.55;;;785.40;;
73697;SDS011;62004;42.566;23.164;2023-02-26T01:07:39;856.78;;;783.17;;
73697;SDS011;62004;42.566;23.164;2023-02-26T01:10:06;864.75;;;790.83;;
73697;SDS011;62004;42.566;23.164;2023-02-26T01:12:32;844.70;;;773.05;;
73697;SDS011;62004;42.566;23.164;2023-02-26T01:14:57;843.10;;;770.05;;
73697;SDS011;62004;42.566;23.164;2023-02-26T01:20:00;861.10;;;787.47;;
73697;SDS011;62004;42.566;23.164;2023-02-26T01:22:32;855.67;;;782.97;;
73697;SDS011;62004;42.566;23.164;2023-02-26T01:25:00;862.38;;;789.90;;
73697;SDS011;62004;42.566;23.164;2023-02-26T01:27:26;850.97;;;778.90;;
73697;SDS011;62004;42.566;23.164;2023-02-26T01:29:51;864.87;;;790.67;;
73697;SDS011;62004;42.566;23.164;2023-02-26T01:34:57;861.60;;;787.30;;
73697;SDS011;62004;42.566;23.164;2023-02-26T01:42:39;843.78;;;771.72;;
73697;SDS011;62004;42.566;23.164;2023-02-26T01:45:11;852.28;;;780.15;;
73697;SDS011;62004;42.566;23.164;2023-02-26T01:50:41;860.05;;;786.88;;
73697;SDS011;62004;42.566;23.164;2023-02-26T01:53:21;850.85;;;779.28;;
73697;SDS011;62004;42.566;23.164;2023-02-26T01:55:49;849.60;;;777.75;;
73697;SDS011;62004;42.566;23.164;2023-02-26T01:58:15;846.83;;;775.33;;
73697;SDS011;62004;42.566;23.164;2023-02-26T02:00:41;852.78;;;779.88;;
73697;SDS011;62004;42.566;23.164;2023-02-26T02:03:13;856.97;;;783.47;;
73697;SDS011;62004;42.566;23.164;2023-02-26T02:05:49;852.65;;;779.63;;
73697;SDS011;62004;42.566;23.164;2023-02-26T02:08:15;844.13;;;772.70;;
73697;SDS011;62004;42.566;23.164;2023-02-26T02:10:41;849.85;;;777.03;;
73697;SDS011;62004;42.566;23.164;2023-02-26T02:16:25;849.80;;;777.35;;
73697;SDS011;62004;42.566;23.164;2023-02-26T02:18:34;861.13;;;787.35;;
73697;SDS011;62004;42.566;23.164;2023-02-26T02:24:00;864.75;;;791.33;;
73697;SDS011;62004;42.566;23.164;2023-02-26T02:26:37;857.42;;;785.78;;
73697;SDS011;62004;42.566;23.164;2023-02-26T02:31:37;846.90;;;775.40;;
73697;SDS011;62004;42.566;23.164;2023-02-26T02:39:48;852.83;;;781.20;;
73697;SDS011;62004;42.566;23.164;2023-02-26T02:44:54;837.83;;;767.00;;
73697;SDS011;62004;42.566;23.164;2023-02-26T02:47:20;846.42;;;773.80;;
73697;SDS011;62004;42.566;23.164;2023-02-26T02:49:51;845.28;;;773.58;;
73697;SDS011;62004;42.566;23.164;2023-02-26T02:54:50;848.43;;;776.20;;
73697;SDS011;62004;42.566;23.164;2023-02-26T02:57:24;847.53;;;774.65;;
73697;SDS011;62004;42.566;23.164;2023-02-26T02:59:52;851.78;;;779.80;;
73697;SDS011;62004;42.566;23.164;2023-02-26T03:02:20;840.25;;;769.00;;
73697;SDS011;62004;42.566;23.164;2023-02-26T03:04:47;838.53;;;766.03;;
73697;SDS011;62004;42.566;23.164;2023-02-26T03:07:13;838.35;;;767.50;;
73697;SDS011;62004;42.566;23.164;2023-02-26T03:09:39;843.40;;;772.25;;
73697;SDS011;62004;42.566;23.164;2023-02-26T03:12:04;844.37;;;773.10;;
73697;SDS011;62004;42.566;23.164;2023-02-26T03:14:29;850.00;;;777.20;;
73697;SDS011;62004;42.566;23.164;2023-02-26T03:19:35;850.50;;;778.72;;
73697;SDS011;62004;42.566;23.164;2023-02-26T03:22:14;853.25;;;780.95;;
73697;SDS011;62004;42.566;23.164;2023-02-26T03:35:13;856.60;;;785.17;;
73697;SDS011;62004;42.566;23.164;2023-02-26T03:37:44;851.42;;;779.53;;
73697;SDS011;62004;42.566;23.164;2023-02-26T03:40:21;858.22;;;786.17;;
73697;SDS011;62004;42.566;23.164;2023-02-26T03:42:52;857.08;;;785.15;;
73697;SDS011;62004;42.566;23.164;2023-02-26T03:45:21;866.92;;;792.83;;
73697;SDS011;62004;42.566;23.164;2023-02-26T03:47:49;851.40;;;779.65;;
73697;SDS011;62004;42.566;23.164;2023-02-26T03:50:39;848.05;;;775.05;;
73697;SDS011;62004;42.566;23.164;2023-02-26T03:53:04;849.00;;;776.50;;
73697;SDS011;62004;42.566;23.164;2023-02-26T03:55:32;845.63;;;773.67;;
73697;SDS011;62004;42.566;23.164;2023-02-26T03:57:59;843.03;;;771.67;;
73697;SDS011;62004;42.566;23.164;2023-02-26T04:00:25;852.80;;;780.63;;
73697;SDS011;62004;42.566;23.164;2023-02-26T04:02:55;841.95;;;770.92;;
73697;SDS011;62004;42.566;23.164;2023-02-26T04:05:26;847.75;;;774.75;;
73697;SDS011;62004;42.566;23.164;2023-02-26T04:07:52;850.03;;;777.10;;
73697;SDS011;62004;42.566;23.164;2023-02-26T04:10:19;847.33;;;774.40;;
73697;SDS011;62004;42.566;23.164;2023-02-26T04:12:45;853.90;;;780.47;;
73697;SDS011;62004;42.566;23.164;2023-02-26T04:15:11;843.63;;;772.23;;
73697;SDS011;62004;42.566;23.164;2023-02-26T04:17:36;844.90;;;772.43;;
73697;SDS011;62004;42.566;23.164;2023-02-26T04:20:01;843.30;;;772.33;;
73697;SDS011;62004;42.566;23.164;2023-02-26T04:22:31;851.92;;;779.10;;
73697;SDS011;62004;42.566;23.164;2023-02-26T04:24:57;854.72;;;782.28;;
73697;SDS011;62004;42.566;23.164;2023-02-26T04:27:22;851.03;;;778.00;;
73697;SDS011;62004;42.566;23.164;2023-02-26T04:29:47;850.50;;;778.70;;
73697;SDS011;62004;42.566;23.164;2023-02-26T04:32:13;843.67;;;772.80;;
73697;SDS011;62004;42.566;23.164;2023-02-26T04:34:38;849.40;;;777.50;;
73697;SDS011;62004;42.566;23.164;2023-02-26T04:37:03;849.93;;;777.33;;
73697;SDS011;62004;42.566;23.164;2023-02-26T04:39:28;850.93;;;778.27;;
73697;SDS011;62004;42.566;23.164;2023-02-26T04:41:54;855.43;;;782.63;;
73697;SDS011;62004;42.566;23.164;2023-02-26T04:44:19;861.07;;;788.03;;
73697;SDS011;62004;42.566;23.164;2023-02-26T04:46:44;845.27;;;773.77;;
73697;SDS011;62004;42.566;23.164;2023-02-26T04:49:09;855.40;;;783.83;;
73697;SDS011;62004;42.566;23.164;2023-02-26T04:51:35;847.17;;;776.00;;
73697;SDS011;62004;42.566;23.164;2023-02-26T04:54:00;855.27;;;784.03;;
73697;SDS011;62004;42.566;23.164;2023-02-26T04:56:25;848.40;;;775.73;;
73697;SDS011;62004;42.566;23.164;2023-02-26T04:58:50;853.67;;;782.03;;
73697;SDS011;62004;42.566;23.164;2023-02-26T05:01:16;845.90;;;775.00;;
73697;SDS011;62004;42.566;23.164;2023-02-26T05:03:41;859.13;;;786.23;;
73697;SDS011;62004;42.566;23.164;2023-02-26T05:06:06;852.00;;;780.87;;
73697;SDS011;62004;42.566;23.164;2023-02-26T05:08:31;850.33;;;779.60;;
73697;SDS011;62004;42.566;23.164;2023-02-26T05:10:57;855.13;;;784.23;;
73697;SDS011;62004;42.566;23.164;2023-02-26T05:13:22;851.73;;;778.87;;
73697;SDS011;62004;42.566;23.164;2023-02-26T05:15:47;856.60;;;785.50;;
73697;SDS011;62004;42.566;23.164;2023-02-26T05:18:12;853.50;;;782.50;;
73697;SDS011;62004;42.566;23.164;2023-02-26T05:20:38;861.13;;;787.97;;
73697;SDS011;62004;42.566;23.164;2023-02-26T05:23:03;853.83;;;782.27;;
73697;SDS011;62004;42.566;23.164;2023-02-26T05:25:28;862.70;;;791.28;;
73697;SDS011;62004;42.566;23.164;2023-02-26T05:27:54;859.60;;;788.03;;
73697;SDS011;62004;42.566;23.164;2023-02-26T05:30:19;849.53;;;778.10;;
73697;SDS011;62004;42.566;23.164;2023-02-26T05:32:45;859.83;;;786.63;;
73697;SDS011;62004;42.566;23.164;2023-02-26T05:35:10;862.67;;;789.73;;
73697;SDS011;62004;42.566;23.164;2023-02-26T05:37:35;854.77;;;783.37;;
73697;SDS011;62004;42.566;23.164;2023-02-26T05:40:01;865.42;;;791.75;;
73697;SDS011;62004;42.566;23.164;2023-02-26T05:42:26;849.13;;;776.50;;
73697;SDS011;62004;42.566;23.164;2023-02-26T05:44:51;848.20;;;776.47;;
73697;SDS011;62004;42.566;23.164;2023-02-26T05:47:17;859.07;;;785.23;;
73697;SDS011;62004;42.566;23.164;2023-02-26T05:49:42;853.83;;;780.17;;
73697;SDS011;62004;42.566;23.164;2023-02-26T05:52:07;852.92;;;779.85;;
73697;SDS011;62004;42.566;23.164;2023-02-26T05:54:32;847.80;;;774.57;;
73697;SDS011;62004;42.566;23.164;2023-02-26T05:56:58;856.50;;;781.22;;
73697;SDS011;62004;42.566;23.164;2023-02-26T05:59:23;846.58;;;771.92;;
73697;SDS011;62004;42.566;23.164;2023-02-26T06:01:49;851.80;;;777.13;;
73697;SDS011;62004;42.566;23.164;2023-02-26T06:04:14;857.45;;;781.97;;
73697;SDS011;62004;42.566;23.164;2023-02-26T06:06:39;853.83;;;777.97;;
73697;SDS011;62004;42.566;23.164;2023-02-26T06:09:05;849.47;;;774.83;;
73697;SDS011;62004;42.566;23.164;2023-02-26T06:11:30;856.72;;;780.17;;
73697;SDS011;62004;42.566;23.164;2023-02-26T06:13:56;841.95;;;767.22;;
73697;SDS011;62004;42.566;23.164;2023-02-26T06:16:21;847.07;;;770.23;;
73697;SDS011;62004;42.566;23.164;2023-02-26T06:18:47;840.17;;;763.50;;
73697;SDS011;62004;42.566;23.164;2023-02-26T06:21:12;840.35;;;763.55;;
73697;SDS011;62004;42.566;23.164;2023-02-26T06:23:38;841.42;;;764.00;;
73697;SDS011;62004;42.566;23.164;2023-02-26T06:26:03;835.23;;;758.00;;
73697;SDS011;62004;42.566;23.164;2023-02-26T06:28:29;832.60;;;752.17;;
73697;SDS011;62004;42.566;23.164;2023-02-26T06:30:54;840.80;;;762.95;;
73697;SDS011;62004;42.566;23.164;2023-02-26T06:33:20;834.97;;;755.87;;
73697;SDS011;62004;42.566;23.164;2023-02-26T06:35:45;825.35;;;745.92;;
73697;SDS011;62004;42.566;23.164;2023-02-26T06:38:11;842.03;;;761.13;;
73697;SDS011;62004;42.566;23.164;2023-02-26T06:40:36;839.53;;;758.27;;
73697;SDS011;62004;42.566;23.164;2023-02-26T06:43:01;836.97;;;756.00;;
73697;SDS011;62004;42.566;23.164;2023-02-26T06:45:26;847.87;;;766.33;;
73697;SDS011;62004;42.566;23.164;2023-02-26T06:47:52;838.47;;;758.07;;
73697;SDS011;62004;42.566;23.164;2023-02-26T06:50:17;844.43;;;762.90;;
73697;SDS011;62004;42.566;23.164;2023-02-26T06:52:42;847.15;;;763.72;;
73697;SDS011;62004;42.566;23.164;2023-02-26T06:55:07;531.57;;;474.60;;
73697;SDS011;62004;42.566;23.164;2023-02-26T06:57:33;12.65;;;2.95;;
73697;SDS011;62004;42.566;23.164;2023-02-26T06:59:58;11.97;;;2.83;;
73697;SDS011;62004;42.566;23.164;2023-02-26T07:02:25;10.70;;;2.30;;
73697;SDS011;62004;42.566;23.164;2023-02-26T07:04:50;20.10;;;3.00;;
73697;SDS011;62004;42.566;23.164;2023-02-26T07:07:15;28.23;;;2.90;;
73697;SDS011;62004;42.566;23.164;2023-02-26T07:09:40;17.63;;;2.80;;
73697;SDS011;62004;42.566;23.164;2023-02-26T07:12:06;10.35;;;2.78;;
73697;SDS011;62004;42.566;23.164;2023-02-26T07:14:31;15.18;;;3.08;;
73697;SDS011;62004;42.566;23.164;2023-02-26T07:16:57;11.38;;;3.05;;
73697;SDS011;62004;42.566;23.164;2023-02-26T07:19:22;915.73;;;766.87;;
73697;SDS011;62004;42.566;23.164;2023-02-26T07:21:47;879.90;;;782.67;;
73697;SDS011;62004;42.566;23.164;2023-02-26T07:24:13;879.37;;;782.07;;
73697;SDS011;62004;42.566;23.164;2023-02-26T07:26:38;885.40;;;789.45;;
73697;SDS011;62004;42.566;23.164;2023-02-26T07:29:04;868.22;;;774.05;;
73697;SDS011;62004;42.566;23.164;2023-02-26T07:31:29;884.10;;;787.40;;
73697;SDS011;62004;42.566;23.164;2023-02-26T07:33:55;881.63;;;784.60;;
73697;SDS011;62004;42.566;23.164;2023-02-26T07:36:20;902.97;;;780.95;;
73697;SDS011;62004;42.566;23.164;2023-02-26T07:38:46;910.40;;;781.13;;
73697;SDS011;62004;42.566;23.164;2023-02-26T07:41:11;914.47;;;771.47;;
73697;SDS011;62004;42.566;23.164;2023-02-26T07:43:36;911.07;;;785.30;;
73697;SDS011;62004;42.566;23.164;2023-02-26T07:46:02;894.75;;;792.58;;
73697;SDS011;62004;42.566;23.164;2023-02-26T07:48:27;895.55;;;791.05;;
73697;SDS011;62004;42.566;23.164;2023-02-26T07:50:53;898.37;;;801.00;;
73697;SDS011;62004;42.566;23.164;2023-02-26T07:53:18;887.35;;;793.55;;
73697;SDS011;62004;42.566;23.164;2023-02-26T07:55:44;896.70;;;801.17;;
73697;SDS011;62004;42.566;23.164;2023-02-26T07:58:09;895.00;;;800.63;;
73697;SDS011;62004;42.566;23.164;2023-02-26T08:00:34;890.53;;;798.28;;
73697;SDS011;62004;42.566;23.164;2023-02-26T08:03:00;899.00;;;807.30;;
73697;SDS011;62004;42.566;23.164;2023-02-26T08:05:25;898.53;;;806.43;;
73697;SDS011;62004;42.566;23.164;2023-02-26T08:07:50;897.40;;;802.83;;
73697;SDS011;62004;42.566;23.164;2023-02-26T08:10:15;895.30;;;801.87;;
73697;SDS011;62004;42.566;23.164;2023-02-26T08:12:41;896.20;;;803.43;;
73697;SDS011;62004;42.566;23.164;2023-02-26T08:15:06;903.83;;;810.43;;
73697;SDS011;62004;42.566;23.164;2023-02-26T08:17:31;901.95;;;809.78;;
73697;SDS011;62004;42.566;23.164;2023-02-26T08:19:57;892.58;;;800.28;;
73697;SDS011;62004;42.566;23.164;2023-02-26T08:22:22;906.03;;;813.47;;
73697;SDS011;62004;42.566;23.164;2023-02-26T08:24:48;905.78;;;811.33;;
73697;SDS011;62004;42.566;23.164;2023-02-26T08:27:13;913.53;;;818.65;;
73697;SDS011;62004;42.566;23.164;2023-02-26T08:29:38;908.80;;;814.70;;
73697;SDS011;62004;42.566;23.164;2023-02-26T08:32:03;913.20;;;818.87;;
73697;SDS011;62004;42.566;23.164;2023-02-26T08:34:29;912.67;;;818.00;;
73697;SDS011;62004;42.566;23.164;2023-02-26T08:36:54;909.80;;;817.87;;
73697;SDS011;62004;42.566;23.164;2023-02-26T08:39:19;910.43;;;816.43;;
73697;SDS011;62004;42.566;23.164;2023-02-26T08:41:44;914.27;;;820.30;;
73697;SDS011;62004;42.566;23.164;2023-02-26T08:44:10;913.30;;;820.70;;
73697;SDS011;62004;42.566;23.164;2023-02-26T08:46:35;914.00;;;819.83;;
73697;SDS011;62004;42.566;23.164;2023-02-26T08:49:00;920.83;;;826.30;;
73697;SDS011;62004;42.566;23.164;2023-02-26T08:51:26;918.33;;;823.53;;
73697;SDS011;62004;42.566;23.164;2023-02-26T08:53:51;909.35;;;817.85;;
73697;SDS011;62004;42.566;23.164;2023-02-26T08:56:16;920.35;;;826.17;;
73697;SDS011;62004;42.566;23.164;2023-02-26T08:58:42;918.33;;;824.50;;
73697;SDS011;62004;42.566;23.164;2023-02-26T09:01:08;912.10;;;817.85;;
73697;SDS011;62004;42.566;23.164;2023-02-26T09:03:33;906.15;;;813.10;;
73697;SDS011;62004;42.566;23.164;2023-02-26T09:05:58;907.80;;;814.03;;
73697;SDS011;62004;42.566;23.164;2023-02-26T09:08:24;905.67;;;809.80;;
73697;SDS011;62004;42.566;23.164;2023-02-26T09:10:49;903.90;;;809.55;;
73697;SDS011;62004;42.566;23.164;2023-02-26T09:13:14;904.17;;;808.90;;
73697;SDS011;62004;42.566;23.164;2023-02-26T09:15:40;900.83;;;805.77;;
73697;SDS011;62004;42.566;23.164;2023-02-26T09:18:05;896.22;;;799.60;;
73697;SDS011;62004;42.566;23.164;2023-02-26T09:20:31;900.85;;;803.90;;
73697;SDS011;62004;42.566;23.164;2023-02-26T09:22:56;886.53;;;790.17;;
73697;SDS011;62004;42.566;23.164;2023-02-26T09:25:21;867.40;;;772.47;;
73697;SDS011;62004;42.566;23.164;2023-02-26T09:27:48;863.70;;;767.05;;
73697;SDS011;62004;42.566;23.164;2023-02-26T09:30:13;878.42;;;765.58;;
73697;SDS011;62004;42.566;23.164;2023-02-26T09:32:39;870.08;;;753.63;;
73697;SDS011;62004;42.566;23.164;2023-02-26T09:35:04;864.92;;;745.35;;
73697;SDS011;62004;42.566;23.164;2023-02-26T09:37:30;847.90;;;742.38;;
73697;SDS011;62004;42.566;23.164;2023-02-26T09:39:55;842.30;;;740.70;;
73697;SDS011;62004;42.566;23.164;2023-02-26T09:45:02;855.30;;;737.95;;
73697;SDS011;62004;42.566;23.164;2023-02-26T09:47:29;847.45;;;730.03;;
73697;SDS011;62004;42.566;23.164;2023-02-26T09:49:58;853.35;;;732.75;;
73697;SDS011;62004;42.566;23.164;2023-02-26T09:52:30;848.38;;;733.60;;
73697;SDS011;62004;42.566;23.164;2023-02-26T09:54:59;847.28;;;739.10;;
73697;SDS011;62004;42.566;23.164;2023-02-26T09:57:29;843.50;;;728.10;;
73697;SDS011;62004;42.566;23.164;2023-02-26T09:59:55;828.75;;;725.65;;
73697;SDS011;62004;42.566;23.164;2023-02-26T10:02:23;817.70;;;723.20;;
73697;SDS011;62004;42.566;23.164;2023-02-26T10:05:03;832.05;;;720.15;;
73697;SDS011;62004;42.566;23.164;2023-02-26T10:10:08;825.55;;;726.22;;
73697;SDS011;62004;42.566;23.164;2023-02-26T10:12:36;823.55;;;719.53;;
73697;SDS011;62004;42.566;23.164;2023-02-26T10:15:11;820.90;;;725.78;;
73697;SDS011;62004;42.566;23.164;2023-02-26T10:20:24;820.50;;;730.45;;
73697;SDS011;62004;42.566;23.164;2023-02-26T10:25:18;807.20;;;718.03;;
73697;SDS011;62004;42.566;23.164;2023-02-26T10:33:05;808.22;;;718.83;;
73697;SDS011;62004;42.566;23.164;2023-02-26T10:35:33;822.47;;;731.63;;
73697;SDS011;62004;42.566;23.164;2023-02-26T10:38:02;821.00;;;729.65;;
73697;SDS011;62004;42.566;23.164;2023-02-26T10:40:48;827.70;;;734.78;;
73697;SDS011;62004;42.566;23.164;2023-02-26T10:43:21;820.88;;;731.58;;
73697;SDS011;62004;42.566;23.164;2023-02-26T10:48:21;821.67;;;732.63;;
73697;SDS011;62004;42.566;23.164;2023-02-26T10:50:52;815.40;;;726.47;;
73697;SDS011;62004;42.566;23.164;2023-02-26T10:53:17;818.38;;;728.03;;
73697;SDS011;62004;42.566;23.164;2023-02-26T10:55:45;826.00;;;734.88;;
73697;SDS011;62004;42.566;23.164;2023-02-26T10:58:15;824.60;;;733.67;;
73697;SDS011;62004;42.566;23.164;2023-02-26T11:00:41;827.70;;;736.60;;
73697;SDS011;62004;42.566;23.164;2023-02-26T11:03:07;815.53;;;725.13;;
73697;SDS011;62004;42.566;23.164;2023-02-26T11:05:35;827.92;;;736.38;;
73697;SDS011;62004;42.566;23.164;2023-02-26T11:08:04;817.57;;;727.30;;
73697;SDS011;62004;42.566;23.164;2023-02-26T11:10:41;824.65;;;733.78;;
73697;SDS011;62004;42.566;23.164;2023-02-26T11:13:07;821.10;;;730.45;;
73697;SDS011;62004;42.566;23.164;2023-02-26T11:15:32;820.25;;;729.97;;
73697;SDS011;62004;42.566;23.164;2023-02-26T11:17:58;811.33;;;720.20;;
73697;SDS011;62004;42.566;23.164;2023-02-26T11:20:35;807.90;;;719.50;;
73697;SDS011;62004;42.566;23.164;2023-02-26T11:23:01;811.72;;;720.33;;
73697;SDS011;62004;42.566;23.164;2023-02-26T11:25:29;808.88;;;720.70;;
73697;SDS011;62004;42.566;23.164;2023-02-26T11:30:41;814.80;;;726.30;;
73697;SDS011;62004;42.566;23.164;2023-02-26T11:33:19;819.92;;;732.10;;
73697;SDS011;62004;42.566;23.164;2023-02-26T11:35:45;822.83;;;733.65;;
73697;SDS011;62004;42.566;23.164;2023-02-26T11:38:14;812.25;;;724.63;;
73697;SDS011;62004;42.566;23.164;2023-02-26T11:40:41;823.47;;;733.70;;
73697;SDS011;62004;42.566;23.164;2023-02-26T11:43:13;821.67;;;732.20;;
73697;SDS011;62004;42.566;23.164;2023-02-26T11:45:41;816.22;;;728.95;;
73697;SDS011;62004;42.566;23.164;2023-02-26T11:48:09;825.05;;;735.60;;
73697;SDS011;62004;42.566;23.164;2023-02-26T11:50:43;821.72;;;733.08;;
73697;SDS011;62004;42.566;23.164;2023-02-26T11:53:16;823.70;;;735.80;;
73697;SDS011;62004;42.566;23.164;2023-02-26T11:55:43;819.88;;;733.25;;
73697;SDS011;62004;42.566;23.164;2023-02-26T11:58:16;818.40;;;730.65;;
73697;SDS011;62004;42.566;23.164;2023-02-26T12:00:42;822.17;;;732.83;;
73697;SDS011;62004;42.566;23.164;2023-02-26T12:03:14;819.67;;;732.17;;
73697;SDS011;62004;42.566;23.164;2023-02-26T12:05:39;824.20;;;736.63;;
73697;SDS011;62004;42.566;23.164;2023-02-26T12:08:07;822.97;;;734.70;;
73697;SDS011;62004;42.566;23.164;2023-02-26T12:15:57;818.70;;;732.57;;
73697;SDS011;62004;42.566;23.164;2023-02-26T12:26:30;816.77;;;729.07;;
73697;SDS011;62004;42.566;23.164;2023-02-26T12:31:43;831.65;;;742.58;;
73697;SDS011;62004;42.566;23.164;2023-02-26T13:21:57;1050.40;;;967.88;;
73697;SDS011;62004;42.566;23.164;2023-02-26T13:24:25;1031.60;;;951.75;;
73697;SDS011;62004;42.566;23.164;2023-02-26T13:26:52;1014.85;;;935.35;;
73697;SDS011;62004;42.566;23.164;2023-02-26T13:29:19;975.70;;;900.90;;
73697;SDS011;62004;42.566;23.164;2023-02-26T13:32:08;960.30;;;887.22;;
73697;SDS011;62004;42.566;23.164;2023-02-26T13:34:36;967.72;;;894.90;;
73697;SDS011;62004;42.566;23.164;2023-02-26T13:37:03;947.40;;;875.13;;
73697;SDS011;62004;42.566;23.164;2023-02-26T13:42:20;994.03;;;921.67;;
73697;SDS011;62004;42.566;23.164;2023-02-26T13:53:32;927.78;;;857.15;;
73697;SDS011;62004;42.566;23.164;2023-02-26T13:55:33;921.47;;;851.72;;
73697;SDS011;62004;42.566;23.164;2023-02-26T13:57:52;967.38;;;895.50;;
73697;SDS011;62004;42.566;23.164;2023-02-26T14:00:32;929.75;;;861.03;;
73697;SDS011;62004;42.566;23.164;2023-02-26T14:03:44;1008.95;;;937.83;;
73697;SDS011;62004;42.566;23.164;2023-02-26T14:08:24;999.47;;;928.15;;
73697;SDS011;62004;42.566;23.164;2023-02-26T14:10:55;971.58;;;901.10;;
73697;SDS011;62004;42.566;23.164;2023-02-26T14:13:21;1009.83;;;940.15;;
73697;SDS011;62004;42.566;23.164;2023-02-26T14:15:49;1023.42;;;951.60;;
73697;SDS011;62004;42.566;23.164;2023-02-26T14:18:36;1009.67;;;940.70;;
73697;SDS011;62004;42.566;23.164;2023-02-26T14:23:45;1039.75;;;968.50;;
73697;SDS011;62004;42.566;23.164;2023-02-26T14:26:14;1006.90;;;937.50;;
73697;SDS011;62004;42.566;23.164;2023-02-26T14:28:45;1018.38;;;949.30;;
73697;SDS011;62004;42.566;23.164;2023-02-26T14:31:20;998.72;;;929.05;;
73697;SDS011;62004;42.566;23.164;2023-02-26T14:36:23;927.40;;;858.70;;
73697;SDS011;62004;42.566;23.164;2023-02-26T14:38:51;971.53;;;901.20;;
73697;SDS011;62004;42.566;23.164;2023-02-26T14:41:21;1008.80;;;937.92;;
73697;SDS011;62004;42.566;23.164;2023-02-26T14:44:21;1003.15;;;934.70;;
73697;SDS011;62004;42.566;23.164;2023-02-26T14:46:40;922.92;;;855.20;;
73697;SDS011;62004;42.566;23.164;2023-02-26T14:49:05;924.50;;;855.88;;
73697;SDS011;62004;42.566;23.164;2023-02-26T15:07:18;1016.20;;;949.65;;
73697;SDS011;62004;42.566;23.164;2023-02-26T15:15:11;949.28;;;888.40;;
73697;SDS011;62004;42.566;23.164;2023-02-26T15:20:11;980.45;;;916.75;;
73697;SDS011;62004;42.566;23.164;2023-02-26T15:25:14;980.95;;;918.88;;
73697;SDS011;62004;42.566;23.164;2023-02-26T15:27:41;991.25;;;927.13;;
73697;SDS011;62004;42.566;23.164;2023-02-26T15:30:06;981.77;;;919.00;;
73697;SDS011;62004;42.566;23.164;2023-02-26T15:32:34;986.55;;;923.38;;
73697;SDS011;62004;42.566;23.164;2023-02-26T15:35:03;975.78;;;913.70;;
73697;SDS011;62004;42.566;23.164;2023-02-26T15:37:29;985.92;;;921.50;;
73697;SDS011;62004;42.566;23.164;2023-02-26T15:39:57;983.40;;;920.15;;
73697;SDS011;62004;42.566;23.164;2023-02-26T15:42:26;985.70;;;922.13;;
73697;SDS011;62004;42.566;23.164;2023-02-26T15:44:53;992.47;;;928.22;;
73697;SDS011;62004;42.566;23.164;2023-02-26T15:47:19;988.95;;;925.40;;
73697;SDS011;62004;42.566;23.164;2023-02-26T15:49:46;1011.88;;;945.47;;
73697;SDS011;62004;42.566;23.164;2023-02-26T15:52:16;1002.05;;;935.92;;
73697;SDS011;62004;42.566;23.164;2023-02-26T15:54:44;1001.10;;;935.83;;
73697;SDS011;62004;42.566;23.164;2023-02-26T15:57:10;1017.88;;;952.38;;
73697;SDS011;62004;42.566;23.164;2023-02-26T15:59:38;1014.63;;;948.42;;
73697;SDS011;62004;42.566;23.164;2023-02-26T16:02:13;991.72;;;927.00;;
73697;SDS011;62004;42.566;23.164;2023-02-26T16:04:39;944.08;;;886.50;;
73697;SDS011;62004;42.566;23.164;2023-02-26T16:07:04;972.72;;;911.65;;
73697;SDS011;62004;42.566;23.164;2023-02-26T16:09:33;968.58;;;907.58;;
73697;SDS011;62004;42.566;23.164;2023-02-26T16:11:59;955.45;;;895.28;;
73697;SDS011;62004;42.566;23.164;2023-02-26T16:14:28;995.40;;;933.15;;
73697;SDS011;62004;42.566;23.164;2023-02-26T16:16:54;995.15;;;931.85;;
73697;SDS011;62004;42.566;23.164;2023-02-26T16:19:41;988.58;;;925.88;;
73697;SDS011;62004;42.566;23.164;2023-02-26T16:22:23;976.85;;;915.25;;
73697;SDS011;62004;42.566;23.164;2023-02-26T16:27:32;976.55;;;914.67;;
73697;SDS011;62004;42.566;23.164;2023-02-26T16:29:59;993.53;;;932.25;;
73697;SDS011;62004;42.566;23.164;2023-02-26T16:32:25;1003.25;;;940.17;;
73697;SDS011;62004;42.566;23.164;2023-02-26T16:34:53;993.38;;;930.88;;
73697;SDS011;62004;42.566;23.164;2023-02-26T16:39:43;992.03;;;928.13;;
73697;SDS011;62004;42.566;23.164;2023-02-26T16:42:13;644.70;;;602.00;;
73697;SDS011;62004;42.566;23.164;2023-02-26T16:44:43;857.45;;;796.95;;
73697;SDS011;62004;42.566;23.164;2023-02-26T16:47:09;803.88;;;745.67;;
73697;SDS011;62004;42.566;23.164;2023-02-26T16:49:35;805.33;;;746.03;;